Prestige Ace — H3NG — position and weather

sailwx.info

Track history (hours):
 
Tides and Currents Weather Stations Pressure Air Temp Water Temp Dewpoint Dewpoint Depression Visibility Wind Speed Wind Dir Waves Ship Positions

Prestige Ace

Last reported at 2017-Dec-14 18:04 UTC. Time now 2017-Dec-16 01:23 UTC.
Position N 39°20' W 010°19'.

Length 200 m; draft 7.9 m.

Type: Cargo ship. MMSI: 355745000.

Date/timePositionNaut miles runAvg speedWind from/ knotsBaromVisibWave heightAir tempDewpointWater temp
2017-Dec-14 18:04N 39°20' W 010°19'1 7.1
2017-Dec-14 17:57N 39°20' W 010°19'3 7.2
2017-Dec-14 17:30N 39°16' W 010°19'4 7.3
2017-Dec-14 17:00N 39°13' W 010°19'4 7.2
2017-Dec-14 16:30N 39°09' W 010°19'4 7.6
2017-Dec-14 16:00N 39°05' W 010°19'7 7.5
2017-Dec-14 15:00N 38°58' W 010°18'4 7.4
2017-Dec-14 14:30N 38°54' W 010°19'4 7.4
2017-Dec-14 14:00N 38°51' W 010°19'4 7.5
2017-Dec-14 13:30N 38°47' W 010°20'4 7.8
2017-Dec-14 13:00N 38°43' W 010°20'4 7.8
2017-Dec-14 12:30N 38°39' W 010°19'611.1
2017-Dec-14 12:00N 38°34' W 010°17'612.7
2017-Dec-14 11:30N 38°27' W 010°16'712.5
2017-Dec-14 10:59N 38°21' W 010°14'612.2
2017-Dec-14 10:29N 38°15' W 010°12'712.2
2017-Dec-14 09:57N 38°09' W 010°11'26410.1
2017-Dec-13 07:51N 36°01' W 005°21'411.1
2017-Dec-13 07:30N 36°02' W 005°17'610.4
2017-Dec-13 06:59N 36°03' W 005°10'3210.5
2017-Dec-13 03:54N 36°08' W 004°31'9411.0
2017-Dec-12 19:24N 36°23' W 002°36'410.8
2017-Dec-12 19:00N 36°23' W 002°31'510.5
2017-Dec-12 18:30N 36°24' W 002°24'510.3
2017-Dec-12 18:00N 36°25' W 002°18'510.0
2017-Dec-12 17:30N 36°26' W 002°12'7214.3
2017-Dec-12 12:29N 37°13' W 001°04'817.3
2017-Dec-12 12:00N 37°18' W 000°55'917.3
2017-Dec-12 11:30N 37°23' W 000°47'917.0
2017-Dec-12 11:00N 37°29' W 000°40'816.9
2017-Dec-12 10:30N 37°36' W 000°33'918.1
2017-Dec-12 10:00N 37°43' W 000°26'918.1
2017-Dec-12 09:29N 37°51' W 000°20'918.0
2017-Dec-12 09:00N 37°59' W 000°14'19816.8
2017-Dec-11 21:13N 40°51' E 001°52'416.0
2017-Dec-11 20:57N 40°55' E 001°55'715.4
2017-Dec-11 20:30N 41°01' E 001°59'714.6
2017-Dec-11 20:00N 41°08' E 002°04'613.0
2017-Dec-11 19:30N 41°13' E 002°08'510.2
2017-Dec-11 19:00N 41°18' E 002°11'1 0.0
2017-Dec-10 21:23N 41°19' E 002°10'20 4.5
2017-Dec-10 17:00N 41°09' E 002°33'6 4.9
2017-Dec-10 15:42N 41°06' E 002°41'29 5.5
2017-Dec-10 10:26N 40°51' E 003°14'28010.2
2017-Dec-09 07:00N 38°36' E 008°33'915.1
2017-Dec-09 06:26N 38°32' E 008°42'26815.2
2017-Dec-08 12:47N 36°13' E 013°31'415.5
2017-Dec-08 12:29N 36°11' E 013°36'915.5
2017-Dec-08 11:55N 36°06' E 013°45'715.6
2017-Dec-08 11:30N 35°60' E 013°48'815.7
2017-Dec-08 11:00N 35°53' E 013°52'815.7
2017-Dec-08 10:30N 35°45' E 013°55'815.8
2017-Dec-08 09:59N 35°37' E 013°58'815.9
2017-Dec-08 09:29N 35°30' E 014°01'  
Track history (hours):
 
Tides and Currents Weather Stations Pressure Air Temp Water Temp Dewpoint Dewpoint Depression Visibility Wind Speed Wind Dir Waves Ship Positions

Prestige Ace

Last reported at 2017-Dec-14 18:04 UTC. Time now 2017-Dec-16 01:23 UTC.
Position N 39°20' W 010°19'.

Length 200 m; draft 7.9 m.

Type: Cargo ship. MMSI: 355745000.

Date/timePositionNaut miles runAvg speedWind from/ knotsBaromVisibWave heightAir tempDewpointWater temp
2017-Dec-14 18:04N 39°20' W 010°19'1 7.1
2017-Dec-14 17:57N 39°20' W 010°19'3 7.2
2017-Dec-14 17:30N 39°16' W 010°19'4 7.3
2017-Dec-14 17:00N 39°13' W 010°19'4 7.2
2017-Dec-14 16:30N 39°09' W 010°19'4 7.6
2017-Dec-14 16:00N 39°05' W 010°19'7 7.5
2017-Dec-14 15:00N 38°58' W 010°18'4 7.4
2017-Dec-14 14:30N 38°54' W 010°19'4 7.4
2017-Dec-14 14:00N 38°51' W 010°19'4 7.5
2017-Dec-14 13:30N 38°47' W 010°20'4 7.8
2017-Dec-14 13:00N 38°43' W 010°20'4 7.8
2017-Dec-14 12:30N 38°39' W 010°19'611.1
2017-Dec-14 12:00N 38°34' W 010°17'612.7
2017-Dec-14 11:30N 38°27' W 010°16'712.5
2017-Dec-14 10:59N 38°21' W 010°14'612.2
2017-Dec-14 10:29N 38°15' W 010°12'712.2
2017-Dec-14 09:57N 38°09' W 010°11'26410.1
2017-Dec-13 07:51N 36°01' W 005°21'411.1
2017-Dec-13 07:30N 36°02' W 005°17'610.4
2017-Dec-13 06:59N 36°03' W 005°10'3210.5
2017-Dec-13 03:54N 36°08' W 004°31'9411.0
2017-Dec-12 19:24N 36°23' W 002°36'410.8
2017-Dec-12 19:00N 36°23' W 002°31'510.5
2017-Dec-12 18:30N 36°24' W 002°24'510.3
2017-Dec-12 18:00N 36°25' W 002°18'510.0
2017-Dec-12 17:30N 36°26' W 002°12'7214.3
2017-Dec-12 12:29N 37°13' W 001°04'817.3
2017-Dec-12 12:00N 37°18' W 000°55'917.3
2017-Dec-12 11:30N 37°23' W 000°47'917.0
2017-Dec-12 11:00N 37°29' W 000°40'816.9
2017-Dec-12 10:30N 37°36' W 000°33'918.1
2017-Dec-12 10:00N 37°43' W 000°26'918.1
2017-Dec-12 09:29N 37°51' W 000°20'918.0
2017-Dec-12 09:00N 37°59' W 000°14'19816.8
2017-Dec-11 21:13N 40°51' E 001°52'416.0
2017-Dec-11 20:57N 40°55' E 001°55'715.4
2017-Dec-11 20:30N 41°01' E 001°59'714.6
2017-Dec-11 20:00N 41°08' E 002°04'613.0
2017-Dec-11 19:30N 41°13' E 002°08'510.2
2017-Dec-11 19:00N 41°18' E 002°11'1 0.0
2017-Dec-10 21:23N 41°19' E 002°10'20 4.5
2017-Dec-10 17:00N 41°09' E 002°33'6 4.9
2017-Dec-10 15:42N 41°06' E 002°41'29 5.5
2017-Dec-10 10:26N 40°51' E 003°14'28010.2
2017-Dec-09 07:00N 38°36' E 008°33'915.1
2017-Dec-09 06:26N 38°32' E 008°42'26815.2
2017-Dec-08 12:47N 36°13' E 013°31'415.5
2017-Dec-08 12:29N 36°11' E 013°36'915.5
2017-Dec-08 11:55N 36°06' E 013°45'715.6
2017-Dec-08 11:30N 35°60' E 013°48'815.7
2017-Dec-08 11:00N 35°53' E 013°52'815.7
2017-Dec-08 10:30N 35°45' E 013°55'815.8
2017-Dec-08 09:59N 35°37' E 013°58'815.9
2017-Dec-08 09:29N 35°30' E 014°01'  

Dump ship's entire track history